Warner, Alberta

Past 24 Hour Conditions

This table is a summary of hourly weather conditions for the past 24 hours. This summary includes the following parameters: temperature, humidity, dew point, wind speed and direction, air pressure, visibility and/or wind chill and humidex.
Date / Time
(MDT)
Conditions Temp (°F) Humidity (%) Dew Point (°F) Wind (mph) Pressure (inches) Vis (mi) Wind Chill
19 April 2014
16:00 N/A 59   17 14 12 N/A N/A *
15:00 N/A 59   18 16 8 N/A N/A *
14:00 N/A 57 19 15 5 N/A N/A *
13:00 N/A 54 21 16 5 N/A N/A *
12:00 N/A 52 26 18 11 N/A N/A *
11:00 N/A 49 32 21 6 N/A N/A *
10:00 N/A 47 50 29 13 N/A N/A *
9:00 N/A 42 68 33 8 N/A N/A *
8:00 N/A 35 81 30 3 N/A N/A *
7:00 N/A 27 85 23 5 N/A N/A 21
6:00 N/A 26 90 23 3 N/A N/A 22
5:00 N/A 25   94 23 2 N/A N/A 22
4:00 N/A 26 95 24 4 N/A N/A 20
3:00 N/A 29 94 28 3 N/A N/A 26
2:00 N/A 32 94 30 4 N/A N/A 28
1:00 N/A 34 93 32 6 N/A N/A *
00:00 N/A 34 94 32 9 N/A N/A *
18 April 2014
23:00 N/A 33 94 32 9 N/A N/A *
22:00 N/A 33 94 32 10 N/A N/A *
21:00 N/A 35 86 31 15 N/A N/A *
20:00 N/A 37 83 32 14 N/A N/A *
19:00 N/A 45 41 23 21 N/A N/A *
18:00 N/A 44 47 25 25 N/A N/A *
17:00 N/A 43 56 29 21 N/A N/A *
16:00 N/A 48 36 22 22 N/A N/A *
N/A
Not available
 ↑ 
Highest temperature
 ↓ 
Lowest temperature
*
Value not significant.

If you require additional historical weather information, please visit Climate Data Online.